Time;durP1;ratioP1;P1;durP2;ratioP2;P2;SDS_P1;SDS_P2;PMS_P1;PMS_P2;Temp;Humidity;BMP_temperature;BMP_pressure;BME280_temperature;BME280_humidity;BME280_pressure;Samples;Min_cycle;Max_cycle;Signal;HPM_P1;HPM_P2
2023/05/24 00:02:20;;;;;;;10.63;6.90;;;17.70;99.90;;;;;;4992663;28;20204;-75
2023/05/24 00:04:48;;;;;;;13.63;7.07;;;17.70;99.90;;;;;;4976042;28;20221;-75
2023/05/24 00:07:15;;;;;;;13.30;7.63;;;17.70;99.90;;;;;;4976357;28;20263;-75
2023/05/24 00:09:42;;;;;;;11.10;7.40;;;17.70;99.90;;;;;;4992114;28;20259;-74
2023/05/24 00:12:09;;;;;;;12.93;7.20;;;17.70;99.90;;;;;;4976933;28;20201;-76
2023/05/24 00:14:36;;;;;;;14.00;7.73;;;17.70;99.90;;;;;;4993310;28;20227;-76
2023/05/24 00:17:04;;;;;;;12.43;7.43;;;17.60;99.90;;;;;;4992878;28;20212;-77
2023/05/24 00:19:31;;;;;;;11.17;7.83;;;17.60;99.90;;;;;;4992584;28;20296;-75
2023/05/24 00:21:58;;;;;;;10.87;7.17;;;17.60;99.90;;;;;;4992177;28;20235;-75
2023/05/24 00:24:25;;;;;;;13.07;7.30;;;17.60;99.90;;;;;;4992145;28;20200;-74
2023/05/24 00:26:52;;;;;;;9.77;6.87;;;17.60;99.90;;;;;;4993401;28;20196;-76
2023/05/24 00:29:19;;;;;;;13.07;7.60;;;17.60;99.90;;;;;;4992417;28;20200;-76
2023/05/24 00:31:46;;;;;;;11.77;7.23;;;17.60;99.90;;;;;;4993698;28;20247;-76
2023/05/24 00:34:13;;;;;;;12.00;7.20;;;17.50;99.90;;;;;;4992091;28;20623;-76
2023/05/24 00:36:40;;;;;;;11.40;6.97;;;17.50;99.90;;;;;;4991859;28;20252;-75
2023/05/24 00:39:07;;;;;;;11.83;7.23;;;17.50;99.90;;;;;;4991918;28;20220;-75
2023/05/24 00:41:34;;;;;;;10.17;7.10;;;17.50;99.90;;;;;;4994393;28;20650;-75
2023/05/24 00:44:01;;;;;;;9.27;6.60;;;17.40;99.90;;;;;;4992325;28;20658;-76
2023/05/24 00:46:30;;;;;;;12.03;7.20;;;17.40;99.90;;;;;;4993506;28;20224;-75
2023/05/24 00:48:59;;;;;;;13.20;6.80;;;17.40;99.90;;;;;;4992650;28;20595;-74
2023/05/24 00:51:28;;;;;;;10.30;7.17;;;17.40;99.90;;;;;;4993187;28;20622;-74
2023/05/24 00:53:55;;;;;;;10.27;6.70;;;17.40;99.90;;;;;;4993030;28;20287;-75
2023/05/24 00:56:23;;;;;;;12.93;6.90;;;17.30;99.90;;;;;;4991666;28;20197;-75
2023/05/24 00:58:53;;;;;;;10.27;6.17;;;17.30;99.90;;;;;;4991560;28;20201;-75
2023/05/24 01:01:24;;;;;;;10.67;6.23;;;17.30;99.90;;;;;;4991570;28;20653;-74
2023/05/24 01:03:56;;;;;;;9.80;6.47;;;17.30;99.90;;;;;;4992857;28;20227;-76
2023/05/24 01:06:25;;;;;;;11.27;6.80;;;17.30;99.90;;;;;;4991692;28;20216;-75
2023/05/24 01:09:08;;;;;;;10.23;6.50;;;17.30;99.90;;;;;;4992667;28;20224;-74
2023/05/24 01:11:52;;;;;;;11.43;6.47;;;17.30;99.90;;;;;;4975287;28;20200;-74
2023/05/24 01:14:49;;;;;;;12.17;7.10;;;17.30;99.90;;;;;;4991340;28;20300;-75
2023/05/24 01:17:50;;;;;;;11.30;7.10;;;17.30;99.90;;;;;;4992646;28;20221;-74
2023/05/24 01:20:21;;;;;;;9.60;6.67;;;17.30;99.90;;;;;;4973453;28;20211;-74
2023/05/24 01:23:04;;;;;;;11.60;6.67;;;17.20;99.90;;;;;;4992347;28;20251;-75
2023/05/24 01:25:59;;;;;;;13.17;6.70;;;17.30;99.90;;;;;;4975359;28;20240;-75
2023/05/24 01:28:27;;;;;;;10.67;7.10;;;17.20;99.90;;;;;;4992734;28;20182;-75
2023/05/24 01:30:55;;;;;;;11.40;6.37;;;17.20;99.90;;;;;;4992020;28;20258;-74
2023/05/24 01:33:22;;;;;;;11.80;7.17;;;17.20;99.90;;;;;;4991774;28;20204;-75
2023/05/24 01:35:49;;;;;;;9.87;6.73;;;17.20;99.90;;;;;;4991430;28;20710;-76
2023/05/24 01:38:16;;;;;;;10.93;6.63;;;17.20;99.90;;;;;;4994219;28;20692;-74
2023/05/24 01:40:46;;;;;;;9.13;6.60;;;17.10;99.90;;;;;;4994541;28;20291;-73
2023/05/24 01:43:41;;;;;;;9.40;7.07;;;17.10;99.90;;;;;;4996070;28;20603;-74
2023/05/24 01:46:24;;;;;;;9.33;6.73;;;17.10;99.90;;;;;;4962658;28;20228;-74
2023/05/24 01:49:18;;;;;;;10.20;6.87;;;17.10;99.90;;;;;;4995342;28;20200;-75
2023/05/24 01:52:02;;;;;;;10.83;6.50;;;17.10;99.90;;;;;;4976703;28;20240;-74
2023/05/24 01:54:35;;;;;;;9.20;6.60;;;17.10;99.90;;;;;;4995255;28;20304;-75
2023/05/24 01:57:06;;;;;;;12.00;6.80;;;17.10;99.90;;;;;;4996057;28;20197;-74
2023/05/24 01:59:35;;;;;;;11.50;6.53;;;17.10;99.90;;;;;;4994413;28;20193;-75
2023/05/24 02:02:02;;;;;;;9.03;6.60;;;17.00;99.90;;;;;;4996252;28;20650;-74
2023/05/24 02:04:29;;;;;;;10.40;6.63;;;17.00;99.90;;;;;;4994193;28;20240;-74
2023/05/24 02:06:59;;;;;;;9.57;6.33;;;17.00;99.90;;;;;;4994445;28;20221;-74
2023/05/24 02:09:26;;;;;;;11.20;6.70;;;17.00;99.90;;;;;;4977619;28;20213;-74
2023/05/24 02:11:54;;;;;;;10.03;6.73;;;17.00;99.90;;;;;;4994582;28;20284;-74
2023/05/24 02:14:21;;;;;;;10.23;6.40;;;16.90;99.90;;;;;;4994048;28;20216;-75
2023/05/24 02:16:49;;;;;;;10.07;6.80;;;16.90;99.90;;;;;;4993964;28;20255;-75
2023/05/24 02:19:20;;;;;;;10.43;6.63;;;16.90;99.90;;;;;;4995429;28;20203;-74
2023/05/24 02:21:47;;;;;;;10.73;6.60;;;16.90;99.90;;;;;;4993719;28;20205;-73
2023/05/24 02:24:15;;;;;;;9.33;6.27;;;16.90;99.90;;;;;;4994074;28;20209;-73
2023/05/24 02:26:42;;;;;;;12.33;6.57;;;16.90;99.90;;;;;;4977511;28;20292;-74
2023/05/24 02:29:09;;;;;;;11.43;6.70;;;16.90;99.90;;;;;;4994799;28;20204;-74
2023/05/24 02:31:36;;;;;;;9.73;6.60;;;16.90;99.90;;;;;;4994877;28;20276;-74
2023/05/24 02:34:03;;;;;;;8.93;6.57;;;16.80;99.90;;;;;;4995200;28;20193;-74
2023/05/24 02:36:31;;;;;;;10.67;6.37;;;16.80;99.90;;;;;;4993453;28;20287;-74
2023/05/24 02:38:58;;;;;;;11.97;7.03;;;16.80;99.90;;;;;;4993332;28;20235;-74
2023/05/24 02:41:25;;;;;;;8.63;6.47;;;16.80;99.90;;;;;;4995249;28;20189;-74
2023/05/24 02:43:52;;;;;;;8.63;6.37;;;16.80;99.90;;;;;;4993794;28;20195;-73
2023/05/24 02:46:19;;;;;;;11.40;6.60;;;16.80;99.90;;;;;;4995438;28;20189;-74
2023/05/24 02:48:48;;;;;;;10.87;6.47;;;16.80;99.90;;;;;;4994175;28;20201;-74
2023/05/24 02:51:15;;;;;;;11.53;6.33;;;16.80;99.90;;;;;;4993563;28;20546;-73
2023/05/24 02:53:44;;;;;;;11.97;6.50;;;16.80;99.90;;;;;;4995240;28;20189;-74
2023/05/24 02:56:12;;;;;;;11.73;6.53;;;16.80;99.90;;;;;;4995355;28;20196;-74
2023/05/24 02:58:39;;;;;;;9.23;6.40;;;16.70;99.90;;;;;;4993402;28;20255;-74
2023/05/24 03:01:07;;;;;;;7.10;6.10;;;16.80;99.90;;;;;;4993450;28;20235;-75
2023/05/24 03:03:34;;;;;;;10.83;6.50;;;16.70;99.90;;;;;;4977001;28;20599;-74
2023/05/24 03:06:01;;;;;;;9.30;6.37;;;16.80;99.90;;;;;;4993507;28;20300;-74
2023/05/24 03:08:29;;;;;;;10.60;6.10;;;16.80;99.90;;;;;;4993721;28;20219;-74
2023/05/24 03:10:56;;;;;;;11.00;6.27;;;16.80;99.90;;;;;;4995083;28;20193;-74
2023/05/24 03:13:23;;;;;;;10.03;6.43;;;16.80;99.90;;;;;;4977979;28;20251;-74
2023/05/24 03:15:49;;;;;;;9.67;6.30;;;16.80;99.90;;;;;;4977579;28;20208;-74
2023/05/24 03:18:17;;;;;;;8.17;5.80;;;16.80;99.90;;;;;;4995063;28;20217;-75
2023/05/24 03:20:44;;;;;;;10.13;6.10;;;16.80;99.90;;;;;;4994850;28;20247;-73
2023/05/24 03:23:11;;;;;;;9.70;5.93;;;16.80;99.90;;;;;;4993607;28;20192;-75
2023/05/24 03:25:38;;;;;;;9.13;5.90;;;16.80;99.90;;;;;;4995110;28;20189;-74
2023/05/24 03:28:06;;;;;;;10.40;6.17;;;16.90;99.90;;;;;;4993320;28;20255;-72
2023/05/24 03:30:36;;;;;;;9.43;5.80;;;16.90;99.90;;;;;;4993377;28;20197;-74
2023/05/24 03:33:03;;;;;;;10.87;5.93;;;16.90;99.90;;;;;;4994660;28;20193;-74
2023/05/24 03:35:30;;;;;;;9.40;6.27;;;16.90;99.90;;;;;;4993496;28;20536;-74
2023/05/24 03:37:57;;;;;;;18.80;6.23;;;16.90;99.90;;;;;;4994515;28;20307;-73
2023/05/24 03:40:24;;;;;;;9.27;6.00;;;16.90;99.90;;;;;;4994662;28;20662;-73
2023/05/24 03:42:52;;;;;;;9.67;6.17;;;17.00;99.90;;;;;;4994817;28;20287;-74
2023/05/24 03:45:19;;;;;;;8.30;5.93;;;17.00;99.90;;;;;;4994115;28;20224;-74
2023/05/24 03:48:04;;;;;;;11.13;5.73;;;17.00;99.90;;;;;;4994028;28;20299;-74
2023/05/24 03:50:37;;;;;;;8.87;6.10;;;17.00;99.90;;;;;;4976491;28;20271;-75
2023/05/24 03:53:04;;;;;;;7.77;5.83;;;17.00;99.90;;;;;;4992641;28;20193;-75
2023/05/24 03:55:31;;;;;;;8.90;5.97;;;17.10;99.90;;;;;;4976516;28;20196;-75
2023/05/24 03:57:58;;;;;;;9.63;5.80;;;17.10;99.90;;;;;;4992467;28;20228;-74
2023/05/24 04:00:25;;;;;;;13.23;5.87;;;17.10;99.90;;;;;;4976198;28;20193;-74
2023/05/24 04:02:52;;;;;;;10.70;5.93;;;17.10;99.90;;;;;;4976325;28;20209;-74
2023/05/24 04:05:19;;;;;;;9.17;5.63;;;17.00;99.90;;;;;;4992723;28;20702;-75
2023/05/24 04:07:46;;;;;;;11.90;6.13;;;17.10;99.90;;;;;;4993673;28;20189;-74
2023/05/24 04:10:13;;;;;;;11.20;6.13;;;17.10;99.90;;;;;;4993142;28;20235;-74
2023/05/24 04:12:40;;;;;;;9.87;5.50;;;17.10;99.90;;;;;;4993716;28;20177;-74
2023/05/24 04:15:13;;;;;;;10.83;5.80;;;17.10;99.90;;;;;;4992991;28;20243;-74
2023/05/24 04:17:42;;;;;;;14.10;5.63;;;17.20;99.90;;;;;;4994023;28;20247;-75
2023/05/24 04:20:11;;;;;;;17.00;6.70;;;17.20;99.90;;;;;;4993581;28;20233;-74
2023/05/24 04:22:38;;;;;;;12.03;6.43;;;17.10;99.90;;;;;;4992356;28;20201;-74
2023/05/24 04:25:06;;;;;;;11.60;5.90;;;17.10;99.90;;;;;;4993612;28;20193;-75
2023/05/24 04:27:35;;;;;;;11.83;6.10;;;17.20;99.90;;;;;;4992216;28;20197;-74
2023/05/24 04:30:02;;;;;;;10.77;6.10;;;17.20;99.90;;;;;;4994335;28;20197;-73
2023/05/24 04:32:31;;;;;;;11.77;5.70;;;17.20;99.90;;;;;;4992032;28;20212;-73
2023/05/24 04:35:01;;;;;;;11.40;5.70;;;17.20;99.90;;;;;;4993863;28;20654;-73
2023/05/24 04:37:30;;;;;;;11.97;5.80;;;17.20;99.90;;;;;;4975545;28;20204;-73
2023/05/24 04:39:58;;;;;;;10.63;5.63;;;17.20;99.90;;;;;;4992936;28;20725;-74
2023/05/24 04:42:30;;;;;;;10.87;5.87;;;17.20;99.90;;;;;;4975908;28;20220;-74
2023/05/24 04:44:58;;;;;;;9.53;5.73;;;17.30;99.90;;;;;;4976093;28;20709;-74
2023/05/24 04:47:25;;;;;;;10.33;5.63;;;17.30;99.90;;;;;;4993541;28;20185;-74
2023/05/24 04:49:53;;;;;;;11.53;5.97;;;17.30;99.90;;;;;;4976048;28;20576;-74
2023/05/24 04:52:20;;;;;;;12.07;5.70;;;17.30;99.90;;;;;;4977249;28;20200;-74
2023/05/24 04:54:48;;;;;;;12.10;6.20;;;17.30;99.90;;;;;;4993989;28;20193;-74
2023/05/24 04:57:15;;;;;;;10.50;6.23;;;17.30;99.90;;;;;;4993431;28;20192;-75
2023/05/24 04:59:43;;;;;;;10.63;5.60;;;17.30;99.90;;;;;;4975685;28;20267;-75
2023/05/24 05:02:10;;;;;;;11.10;5.83;;;17.30;99.90;;;;;;4993199;28;20227;-74
2023/05/24 05:04:37;;;;;;;8.70;5.63;;;17.20;99.90;;;;;;4977116;28;20260;-76
2023/05/24 05:07:04;;;;;;;9.37;5.47;;;17.20;99.90;;;;;;4976954;28;20212;-74
2023/05/24 05:09:31;;;;;;;11.70;6.07;;;17.30;99.90;;;;;;4975495;28;20216;-74
2023/05/24 05:11:58;;;;;;;9.40;5.57;;;17.40;99.90;;;;;;4975789;28;20259;-73
2023/05/24 05:14:25;;;;;;;9.87;5.67;;;17.30;99.90;;;;;;4996213;28;20189;-74
2023/05/24 05:16:52;;;;;;;8.60;5.90;;;17.20;99.90;;;;;;4995574;28;20197;-73
2023/05/24 05:19:20;;;;;;;11.50;5.53;;;17.20;99.90;;;;;;4995354;28;20235;-73
2023/05/24 05:21:47;;;;;;;10.43;5.87;;;17.30;99.90;;;;;;4995549;28;20189;-73
2023/05/24 05:24:15;;;;;;;10.10;6.00;;;17.40;99.90;;;;;;4996495;28;20197;-74
2023/05/24 05:26:42;;;;;;;9.23;5.83;;;17.40;99.90;;;;;;4996350;28;20184;-73
2023/05/24 05:29:09;;;;;;;11.73;5.90;;;17.60;99.90;;;;;;4995256;28;20530;-74
2023/05/24 05:31:36;;;;;;;8.30;5.57;;;17.60;99.90;;;;;;4996799;28;20677;-75
2023/05/24 05:34:03;;;;;;;9.50;5.73;;;17.50;99.90;;;;;;4996112;28;20201;-74
2023/05/24 05:36:31;;;;;;;9.67;5.60;;;17.60;99.90;;;;;;4997023;28;20248;-74
2023/05/24 05:38:58;;;;;;;8.27;5.83;;;17.70;99.90;;;;;;4978902;28;20217;-73
2023/05/24 05:41:25;;;;;;;10.40;5.80;;;17.70;99.90;;;;;;4995087;28;20205;-74
2023/05/24 05:43:52;;;;;;;12.97;5.90;;;17.80;99.90;;;;;;4979188;28;20573;-74
2023/05/24 05:46:20;;;;;;;8.43;5.87;;;17.80;99.90;;;;;;4996477;28;20201;-73
2023/05/24 05:48:48;;;;;;;8.47;5.60;;;17.90;99.90;;;;;;4995012;28;20646;-75
2023/05/24 05:51:15;;;;;;;11.80;6.03;;;18.00;99.90;;;;;;4995350;28;20334;-75
2023/05/24 05:53:42;;;;;;;8.67;5.63;;;18.00;99.90;;;;;;4994792;28;20201;-77
2023/05/24 05:56:09;;;;;;;8.30;5.23;;;18.10;99.90;;;;;;4995434;28;20201;-75
2023/05/24 05:58:37;;;;;;;10.57;5.80;;;18.10;99.90;;;;;;4998255;28;20252;-77
2023/05/24 06:01:04;;;;;;;11.13;5.83;;;18.20;99.90;;;;;;4999479;28;20200;-77
2023/05/24 06:03:31;;;;;;;9.00;5.73;;;18.20;99.90;;;;;;4994334;28;20201;-78
2023/05/24 06:05:58;;;;;;;9.93;6.00;;;18.20;99.90;;;;;;4994454;28;20208;-78
2023/05/24 06:08:26;;;;;;;9.03;5.33;;;18.30;99.90;;;;;;4995594;28;20193;-75
2023/05/24 06:10:53;;;;;;;9.40;6.13;;;18.40;99.90;;;;;;4994687;28;20196;-73
2023/05/24 06:13:27;;;;;;;10.27;5.43;;;18.40;99.90;;;;;;4998087;28;20203;-73
2023/05/24 06:16:00;;;;;;;7.67;5.07;;;18.50;99.90;;;;;;5019363;28;20199;-72
2023/05/24 06:18:33;;;;;;;7.90;4.97;;;18.60;99.90;;;;;;5035857;28;20686;-73
2023/05/24 06:21:00;;;;;;;9.90;5.47;;;18.50;99.90;;;;;;5036146;28;20611;-72
2023/05/24 06:23:32;;;;;;;10.20;5.20;;;18.60;99.90;;;;;;5022299;28;20195;-74
2023/05/24 06:26:00;;;;;;;7.67;5.43;;;18.80;99.90;;;;;;5001620;28;20214;-74
2023/05/24 06:28:27;;;;;;;7.00;5.00;;;18.90;99.90;;;;;;5033121;28;20211;-75
2023/05/24 06:30:54;;;;;;;7.67;5.07;;;19.00;99.90;;;;;;5033478;28;20199;-71
2023/05/24 06:33:21;;;;;;;8.60;5.68;;;19.10;99.90;;;;;;5033574;28;20438;-71
2023/05/24 06:35:48;;;;;;;8.70;5.73;;;19.20;99.90;;;;;;5032487;28;20565;-83
2023/05/24 06:38:16;;;;;;;9.37;5.57;;;19.30;99.90;;;;;;5032979;28;20334;-78
2023/05/24 06:40:44;;;;;;;10.90;6.18;;;19.40;99.90;;;;;;5015651;28;20431;-77
2023/05/24 06:43:11;;;;;;;11.33;5.20;;;19.40;99.90;;;;;;5032828;28;20322;-71
2023/05/24 06:45:38;;;;;;;9.90;5.63;;;19.40;99.90;;;;;;5016369;28;20286;-70
2023/05/24 06:48:05;;;;;;;8.47;5.27;;;19.50;99.90;;;;;;5033237;28;20195;-81
2023/05/24 06:50:32;;;;;;;9.27;5.43;;;19.60;99.90;;;;;;5018623;28;20914;-76
2023/05/24 06:52:59;;;;;;;8.90;5.33;;;19.70;99.90;;;;;;5022783;28;20196;-72
2023/05/24 06:55:29;;;;;;;8.60;5.33;;;19.80;99.90;;;;;;5035359;28;20629;-75
2023/05/24 06:57:56;;;;;;;8.33;5.63;;;19.80;99.90;;;;;;5032882;28;20653;-71
2023/05/24 07:00:23;;;;;;;10.80;6.30;;;19.70;99.90;;;;;;5031340;28;20781;-76
2023/05/24 07:02:50;;;;;;;9.27;5.60;;;19.80;99.90;;;;;;5036059;28;20246;-80
2023/05/24 07:05:17;;;;;;;12.63;5.30;;;20.00;99.90;;;;;;5041899;28;20362;-81
2023/05/24 07:07:45;;;;;;;8.33;5.30;;;20.20;99.90;;;;;;5033059;28;20231;-76
2023/05/24 07:10:15;;;;;;;8.57;5.57;;;20.20;99.90;;;;;;5034900;28;20755;-80
2023/05/24 07:12:42;;;;;;;8.70;6.00;;;20.20;99.90;;;;;;5017791;28;20422;-76
2023/05/24 07:15:09;;;;;;;11.30;5.80;;;20.20;99.90;;;;;;5032601;28;20199;-75
2023/05/24 07:17:36;;;;;;;8.87;5.57;;;20.40;99.90;;;;;;5033573;28;20278;-75
2023/05/24 07:20:08;;;;;;;9.30;6.50;;;20.50;99.90;;;;;;5031011;28;20442;-76
2023/05/24 07:22:36;;;;;;;9.20;5.20;;;20.60;99.90;;;;;;5024476;28;20696;-74
2023/05/24 07:25:04;;;;;;;10.30;5.77;;;20.60;99.90;;;;;;4996236;28;20625;-74
2023/05/24 07:27:31;;;;;;;8.57;5.40;;;20.80;99.90;;;;;;4996248;28;20200;-74
2023/05/24 07:29:58;;;;;;;12.97;5.60;;;21.00;99.90;;;;;;5012264;28;20200;-75
2023/05/24 07:32:25;;;;;;;7.43;5.43;;;21.20;99.90;;;;;;4995968;28;20200;-73
2023/05/24 07:34:52;;;;;;;11.33;5.43;;;21.50;99.90;;;;;;5013902;28;20732;-76
2023/05/24 07:37:22;;;;;;;9.63;5.63;;;21.50;99.90;;;;;;4995597;28;20208;-77
2023/05/24 07:39:50;;;;;;;8.57;5.70;;;21.60;99.90;;;;;;4995981;28;20227;-81
2023/05/24 07:42:18;;;;;;;8.57;5.43;;;21.60;99.90;;;;;;5011832;28;20192;-73
2023/05/24 07:44:45;;;;;;;8.80;5.77;;;21.70;99.90;;;;;;4979711;28;20669;-73
2023/05/24 07:47:12;;;;;;;7.63;5.53;;;21.80;99.90;;;;;;4995860;28;20192;-81
2023/05/24 07:49:39;;;;;;;8.53;5.57;;;21.70;99.90;;;;;;5012194;28;20208;-75
2023/05/24 07:52:13;;;;;;;10.57;5.83;;;22.00;99.90;;;;;;4995592;28;20198;-74
2023/05/24 07:54:42;;;;;;;8.83;5.90;;;22.10;99.90;;;;;;5012337;28;20220;-76
2023/05/24 07:57:09;;;;;;;8.30;5.47;;;22.20;99.90;;;;;;4995621;28;20235;-78
2023/05/24 07:59:36;;;;;;;10.20;5.60;;;22.40;99.90;;;;;;5012783;28;20212;-75
2023/05/24 08:02:04;;;;;;;10.53;5.73;;;22.50;99.90;;;;;;4963750;28;20708;-73
2023/05/24 08:04:34;;;;;;;8.95;6.10;;;22.60;99.90;;;;;;4992018;28;20339;-73
2023/05/24 08:07:02;;;;;;;9.20;5.90;;;22.60;99.90;;;;;;4993715;28;20231;-75
2023/05/24 08:09:32;;;;;;;10.43;6.03;;;22.70;99.90;;;;;;5007908;28;20300;-75
2023/05/24 08:12:00;;;;;;;11.18;6.10;;;22.90;99.90;;;;;;4992763;28;20200;-75
2023/05/24 08:14:27;;;;;;;8.15;5.82;;;23.00;99.90;;;;;;5007841;28;20205;-75
2023/05/24 08:16:54;;;;;;;13.18;6.28;;;23.20;99.90;;;;;;5008238;28;20263;-75
2023/05/24 08:19:21;;;;;;;10.55;6.20;;;23.80;98.50;;;;;;4991453;28;20324;-74
2023/05/24 08:21:48;;;;;;;11.93;6.22;;;24.30;97.10;;;;;;4993140;28;20545;-74
2023/05/24 08:24:15;;;;;;;12.18;6.03;;;24.80;95.10;;;;;;4991853;28;20235;-76
2023/05/24 08:26:44;;;;;;;8.45;6.70;;;24.90;94.50;;;;;;4991711;28;20251;-76
2023/05/24 08:29:11;;;;;;;10.18;6.07;;;24.80;94.60;;;;;;5008018;28;20243;-77
2023/05/24 08:31:38;;;;;;;8.88;6.22;;;25.10;95.00;;;;;;5008460;28;20197;-77
2023/05/24 08:34:05;;;;;;;12.15;6.07;;;25.90;94.40;;;;;;5007880;28;20209;-77
2023/05/24 08:36:32;;;;;;;10.95;5.72;;;26.80;92.00;;;;;;5007803;28;20204;-78
2023/05/24 08:38:59;;;;;;;9.13;5.63;;;27.60;87.30;;;;;;4991605;28;20266;-75
2023/05/24 08:41:27;;;;;;;12.00;5.85;;;28.30;83.30;;;;;;4993226;28;20196;-75
2023/05/24 08:43:58;;;;;;;10.52;6.22;;;29.00;83.00;;;;;;5007809;28;20204;-78
2023/05/24 08:46:26;;;;;;;9.25;5.80;;;29.20;79.40;;;;;;4992821;28;20191;-73
2023/05/24 08:48:56;;;;;;;12.15;5.70;;;29.50;75.80;;;;;;5010369;28;20201;-75
2023/05/24 08:51:23;;;;;;;12.65;5.60;;;29.70;75.80;;;;;;5012018;28;20315;-76
2023/05/24 08:53:51;;;;;;;7.38;5.25;;;30.00;75.10;;;;;;4996968;28;20529;-76
2023/05/24 08:56:18;;;;;;;7.07;5.07;;;30.30;71.80;;;;;;5011513;28;20216;-76
2023/05/24 08:58:45;;;;;;;9.00;5.85;;;30.60;70.30;;;;;;4996788;28;20204;-73
2023/05/24 09:01:15;;;;;;;7.80;5.47;;;29.80;67.60;;;;;;5011724;28;20197;-75
2023/05/24 09:03:44;;;;;;;9.30;5.55;;;29.90;71.00;;;;;;4997015;28;20248;-75
2023/05/24 09:06:14;;;;;;;8.70;5.05;;;30.30;69.20;;;;;;4998620;28;20521;-76
2023/05/24 09:08:42;;;;;;;9.20;5.43;;;30.30;71.20;;;;;;5014942;28;20215;-76
2023/05/24 09:11:10;;;;;;;8.65;5.25;;;30.60;72.30;;;;;;4998235;28;20208;-74
2023/05/24 09:13:38;;;;;;;13.55;5.55;;;31.10;70.90;;;;;;5015063;28;20545;-73
2023/05/24 09:16:06;;;;;;;6.15;5.07;;;31.40;65.10;;;;;;5016006;28;20258;-73
2023/05/24 09:18:33;;;;;;;7.57;5.10;;;31.10;66.30;;;;;;5015715;28;20207;-75
2023/05/24 09:21:00;;;;;;;10.00;5.13;;;31.40;65.50;;;;;;5014784;28;20226;-74
2023/05/24 09:23:27;;;;;;;7.75;4.97;;;30.80;65.50;;;;;;5015840;28;20275;-75
2023/05/24 09:25:56;;;;;;;7.38;4.90;;;30.40;67.40;;;;;;5015755;28;20192;-74
2023/05/24 09:28:23;;;;;;;6.03;4.97;;;30.20;67.10;;;;;;5014282;28;20192;-76
2023/05/24 09:30:58;;;;;;;8.48;4.80;;;29.80;69.60;;;;;;5015659;28;20206;-76
2023/05/24 09:33:33;;;;;;;8.68;5.45;;;29.20;70.80;;;;;;5015728;28;20188;-75
2023/05/24 09:36:03;;;;;;;8.82;5.45;;;29.20;70.50;;;;;;5015857;28;20207;-76
2023/05/24 09:38:30;;;;;;;10.68;5.32;;;28.70;68.90;;;;;;5014557;28;20273;-75
2023/05/24 09:41:05;;;;;;;10.27;5.05;;;28.20;67.50;;;;;;5015499;28;20246;-81
2023/05/24 09:43:34;;;;;;;6.95;4.97;;;28.30;70.10;;;;;;4997726;28;20191;-76
2023/05/24 09:46:03;;;;;;;8.18;5.43;;;28.20;70.10;;;;;;5014219;28;20192;-79
2023/05/24 09:48:30;;;;;;;7.57;5.25;;;28.30;72.50;;;;;;4997829;28;20204;-75
2023/05/24 09:51:02;;;;;;;9.15;5.75;;;28.50;73.10;;;;;;5015017;28;20204;-75
2023/05/24 09:53:32;;;;;;;9.55;5.55;;;28.60;73.20;;;;;;5014021;28;20200;-75
2023/05/24 09:56:02;;;;;;;8.50;5.60;;;28.50;71.80;;;;;;5013957;28;20254;-75
2023/05/24 09:58:32;;;;;;;8.00;5.53;;;28.70;71.50;;;;;;4997125;28;20200;-75
2023/05/24 10:01:07;;;;;;;9.23;5.57;;;28.40;71.70;;;;;;5014045;28;20238;-81
2023/05/24 10:03:37;;;;;;;7.97;5.22;;;28.30;70.50;;;;;;4997286;28;20195;-74
2023/05/24 10:06:06;;;;;;;9.93;7.00;;;28.00;72.00;;;;;;4998213;28;20242;-79
2023/05/24 10:08:35;;;;;;;13.55;7.13;;;27.70;73.80;;;;;;4997231;28;20672;-75
2023/05/24 10:11:03;;;;;;;11.40;7.03;;;27.30;75.30;;;;;;4997407;28;20250;-75
2023/05/24 10:13:35;;;;;;;14.35;7.60;;;27.00;77.10;;;;;;4981283;28;20254;-74
2023/05/24 10:16:03;;;;;;;11.50;7.00;;;26.70;78.40;;;;;;5013292;28;20295;-77
2023/05/24 10:18:30;;;;;;;11.32;7.03;;;26.50;78.00;;;;;;4996844;28;20219;-74
2023/05/24 10:20:59;;;;;;;12.23;6.57;;;26.40;79.70;;;;;;5013271;28;20291;-75
2023/05/24 10:23:30;;;;;;;12.40;7.15;;;26.50;80.50;;;;;;5013480;28;20200;-77
2023/05/24 10:26:08;;;;;;;11.73;7.50;;;26.50;79.60;;;;;;5014429;28;20595;-77
2023/05/24 10:28:41;;;;;;;13.35;7.78;;;26.70;78.80;;;;;;5013494;28;20195;-77
2023/05/24 10:31:14;;;;;;;10.40;7.40;;;26.30;79.00;;;;;;5013044;28;20200;-75
2023/05/24 10:33:44;;;;;;;14.35;7.10;;;25.90;80.50;;;;;;5013193;28;20208;-75
2023/05/24 10:36:13;;;;;;;11.90;7.57;;;26.10;81.20;;;;;;5012998;28;20235;-78
2023/05/24 10:38:40;;;;;;;16.98;7.70;;;26.00;80.40;;;;;;4996800;28;20226;-77
2023/05/24 10:41:08;;;;;;;11.80;7.50;;;25.80;81.40;;;;;;5012805;28;20251;-75
2023/05/24 10:43:36;;;;;;;13.77;7.07;;;25.60;83.30;;;;;;4996868;28;20197;-76
2023/05/24 10:46:07;;;;;;;13.77;7.38;;;26.10;81.40;;;;;;5013024;28;20204;-75
2023/05/24 10:48:35;;;;;;;11.20;7.15;;;26.10;81.40;;;;;;4996380;28;20196;-76
2023/05/24 10:51:32;;;;;;;14.27;7.28;;;26.00;82.10;;;;;;5012550;28;20216;-77
2023/05/24 10:54:11;;;;;;;13.75;7.47;;;26.10;82.10;;;;;;4980135;28;20307;-76
2023/05/24 10:56:47;;;;;;;13.82;7.07;;;26.10;80.60;;;;;;5013770;28;20188;-74
2023/05/24 10:59:36;;;;;;;11.07;7.20;;;26.30;82.90;;;;;;5012378;28;20307;-74
2023/05/24 11:02:14;;;;;;;13.60;6.93;;;26.40;81.30;;;;;;4996317;28;20227;-78
2023/05/24 11:04:45;;;;;;;15.20;7.30;;;27.10;79.70;;;;;;5012319;28;20231;-75
2023/05/24 11:07:14;;;;;;;12.48;7.38;;;27.60;78.90;;;;;;4996212;28;20218;-74
2023/05/24 11:09:51;;;;;;;12.93;7.43;;;27.80;76.30;;;;;;4996216;28;20192;-75
2023/05/24 11:12:22;;;;;;;14.20;7.57;;;28.00;76.90;;;;;;4995479;28;20646;-77
2023/05/24 11:14:51;;;;;;;10.35;6.88;;;28.00;74.40;;;;;;5012306;28;20279;-75
2023/05/24 11:17:20;;;;;;;12.90;7.18;;;28.10;75.00;;;;;;5013796;28;20544;-74
2023/05/24 11:19:55;;;;;;;12.90;7.50;;;28.00;75.00;;;;;;5012302;28;20455;-75
2023/05/24 11:22:25;;;;;;;16.42;7.13;;;28.00;76.00;;;;;;5012155;28;20204;-72
2023/05/24 11:24:52;;;;;;;10.98;6.95;;;28.20;75.20;;;;;;5012296;28;20192;-74
2023/05/24 11:27:20;;;;;;;9.88;7.22;;;28.20;73.90;;;;;;5012457;28;20570;-74
2023/05/24 11:29:47;;;;;;;13.35;7.30;;;28.80;75.50;;;;;;5013519;28;20211;-73
2023/05/24 11:32:16;;;;;;;9.90;6.63;;;29.50;73.30;;;;;;5012253;28;20200;-77
2023/05/24 11:34:46;;;;;;;9.48;6.43;;;30.10;71.20;;;;;;4995726;28;20208;-74
2023/05/24 11:37:14;;;;;;;13.10;6.70;;;30.10;69.80;;;;;;5012534;28;20250;-75
2023/05/24 11:39:49;;;;;;;10.40;7.13;;;30.40;70.30;;;;;;5012103;28;20228;-75
2023/05/24 11:42:17;;;;;;;10.20;6.82;;;30.30;69.30;;;;;;5011747;28;20214;-75
2023/05/24 11:44:47;;;;;;;12.43;7.90;;;29.50;70.80;;;;;;5011850;28;20597;-75
2023/05/24 11:47:14;;;;;;;10.40;6.90;;;29.40;70.10;;;;;;4996181;28;20196;-72
2023/05/24 11:49:41;;;;;;;11.13;6.80;;;29.80;70.20;;;;;;4995815;28;20208;-74
2023/05/24 11:52:08;;;;;;;10.93;6.80;;;30.10;69.60;;;;;;5011560;28;20203;-75
2023/05/24 11:54:37;;;;;;;10.50;6.97;;;29.90;68.70;;;;;;5011881;28;20228;-74
2023/05/24 11:57:04;;;;;;;7.88;6.25;;;30.10;68.50;;;;;;4995223;28;20282;-74
2023/05/24 11:59:31;;;;;;;10.90;6.60;;;30.10;67.90;;;;;;5011523;28;20200;-73
2023/05/24 12:02:02;;;;;;;13.63;7.45;;;29.50;69.30;;;;;;4995561;28;20200;-73
2023/05/24 12:04:31;;;;;;;8.85;6.55;;;28.90;70.60;;;;;;4991919;28;20228;-73
2023/05/24 12:06:58;;;;;;;10.95;6.93;;;29.90;71.20;;;;;;4993415;28;20192;-73
2023/05/24 12:09:26;;;;;;;8.63;6.22;;;30.70;69.50;;;;;;4992250;28;20291;-73
2023/05/24 12:11:53;;;;;;;7.68;5.97;;;31.50;68.10;;;;;;5008640;28;20541;-76
2023/05/24 12:14:29;;;;;;;9.45;6.10;;;32.20;65.40;;;;;;4991880;28;20204;-74
2023/05/24 12:16:58;;;;;;;11.65;7.10;;;32.90;64.00;;;;;;4992088;28;20200;-72
2023/05/24 12:19:32;;;;;;;11.45;6.60;;;32.70;60.80;;;;;;4993090;28;20197;-73
2023/05/24 12:22:05;;;;;;;9.70;5.97;;;32.20;62.60;;;;;;4992525;28;20566;-73
2023/05/24 12:24:33;;;;;;;9.93;6.18;;;32.30;64.60;;;;;;4991885;28;20205;-77
2023/05/24 12:27:01;;;;;;;10.02;6.00;;;32.80;62.20;;;;;;5008263;28;20211;-73
2023/05/24 12:29:34;;;;;;;10.68;6.28;;;32.30;61.50;;;;;;4993026;28;20522;-73
2023/05/24 12:32:01;;;;;;;8.05;5.68;;;32.50;61.90;;;;;;5008497;28;20374;-71
2023/05/24 12:34:28;;;;;;;8.63;6.05;;;33.10;62.70;;;;;;4992552;28;20193;-73
2023/05/24 12:36:55;;;;;;;11.05;5.97;;;33.30;64.40;;;;;;4991724;28;20207;-74
2023/05/24 12:39:31;;;;;;;8.85;5.75;;;34.20;64.60;;;;;;4991589;28;20235;-72
2023/05/24 12:42:00;;;;;;;8.70;5.32;;;35.00;60.10;;;;;;4991585;28;20206;-74
2023/05/24 12:44:31;;;;;;;11.57;6.03;;;35.20;59.70;;;;;;4993566;28;20173;-73
2023/05/24 12:47:00;;;;;;;12.20;5.93;;;35.30;57.50;;;;;;4975187;28;20291;-74
2023/05/24 12:49:27;;;;;;;7.63;5.50;;;35.60;56.90;;;;;;5007942;28;20223;-74
2023/05/24 12:51:55;;;;;;;9.57;5.70;;;35.80;57.20;;;;;;5007691;28;20225;-74